Time;durP1;ratioP1;P1;durP2;ratioP2;P2;SDS_P1;SDS_P2;PMS_P1;PMS_P2;Temp;Humidity;BMP_temperature;BMP_pressure;BME280_temperature;BME280_humidity;BME280_pressure;Samples;Min_cycle;Max_cycle;Signal;HPM_P1;HPM_P2
2022/11/27 00:00:56;;;;;;;6.47;2.85;;;;;;;;;;5027591;28;20038;-92
2022/11/27 00:03:22;;;;;;;4.78;2.17;;;;;;;;;;5016812;28;20030;-91
2022/11/27 00:05:55;;;;;;;3.30;2.13;;;;;;;;;;5023349;28;20087;-92
2022/11/27 00:08:21;;;;;;;2.85;1.95;;;;;;;;;;5030837;28;20041;-92
2022/11/27 00:10:46;;;;;;;3.25;2.00;;;;;;;;;;5031831;28;20080;-91
2022/11/27 00:13:12;;;;;;;14.18;3.05;;;;;;;;;;5030533;28;20562;-92
2022/11/27 00:15:37;;;;;;;12.30;2.97;;;;;;;;;;5028029;28;20257;-92
2022/11/27 00:18:02;;;;;;;4.45;2.53;;;;;;;;;;5023481;28;20037;-92
2022/11/27 00:20:28;;;;;;;5.38;3.30;;;;;;;;;;5025909;28;20049;-92
2022/11/27 00:22:54;;;;;;;3.63;1.92;;;;;;;;;;5009111;28;20037;-90
2022/11/27 00:25:19;;;;;;;6.30;1.85;;;;;;;;;;5028195;28;20025;-91
2022/11/27 00:27:44;;;;;;;4.43;1.80;;;;;;;;;;5030840;28;20099;-92
2022/11/27 00:30:10;;;;;;;8.25;2.67;;;;;;;;;;5029462;28;20423;-90
2022/11/27 00:32:35;;;;;;;7.30;2.97;;;;;;;;;;5027952;28;20041;-92
2022/11/27 00:35:01;;;;;;;9.50;3.50;;;;;;;;;;5030290;28;20025;-91
2022/11/27 00:37:26;;;;;;;8.10;3.35;;;;;;;;;;5024883;28;20061;-91
2022/11/27 00:39:51;;;;;;;5.03;1.80;;;;;;;;;;5029218;28;20038;-91
2022/11/27 00:42:17;;;;;;;3.60;1.98;;;;;;;;;;5030442;28;20048;-91
2022/11/27 00:44:42;;;;;;;8.10;2.95;;;;;;;;;;5014121;28;20529;-92
2022/11/27 00:47:08;;;;;;;2.33;1.75;;;;;;;;;;5020146;28;20148;-91
2022/11/27 00:49:33;;;;;;;6.80;3.10;;;;;;;;;;5030187;28;20522;-91
2022/11/27 00:51:58;;;;;;;4.38;1.70;;;;;;;;;;5029028;28;20114;-92
2022/11/27 00:54:24;;;;;;;4.38;1.55;;;;;;;;;;5028098;28;20083;-92
2022/11/27 00:56:49;;;;;;;11.73;3.35;;;;;;;;;;5027165;28;20041;-92
2022/11/27 00:59:17;;;;;;;6.70;1.88;;;;;;;;;;5036749;28;20037;-92
2022/11/27 01:01:43;;;;;;;4.80;1.98;;;;;;;;;;5029143;28;20051;-93
2022/11/27 01:04:12;;;;;;;3.63;1.83;;;;;;;;;;5027014;28;20037;-92
2022/11/27 01:06:38;;;;;;;4.03;2.15;;;;;;;;;;5028096;28;20429;-92
2022/11/27 01:09:04;;;;;;;5.95;2.15;;;;;;;;;;5028222;28;20124;-92
2022/11/27 01:11:32;;;;;;;6.78;2.40;;;;;;;;;;5025739;28;20041;-93
2022/11/27 01:14:00;;;;;;;5.82;2.08;;;;;;;;;;5021673;28;20710;-91
2022/11/27 01:16:27;;;;;;;2.47;1.45;;;;;;;;;;5022949;28;20098;-92
2022/11/27 01:18:56;;;;;;;10.20;1.90;;;;;;;;;;5028036;28;20029;-92
2022/11/27 01:21:23;;;;;;;2.58;1.23;;;;;;;;;;5030260;28;20052;-92
2022/11/27 01:23:49;;;;;;;4.95;2.00;;;;;;;;;;5028624;28;20037;-91
2022/11/27 01:26:16;;;;;;;3.30;1.73;;;;;;;;;;5016431;28;20410;-91
2022/11/27 01:28:42;;;;;;;6.80;1.58;;;;;;;;;;5029792;28;20037;-92
2022/11/27 01:31:16;;;;;;;3.45;1.75;;;;;;;;;;5028750;28;20052;-92
2022/11/27 01:33:42;;;;;;;5.03;1.48;;;;;;;;;;5047776;28;20181;-92
2022/11/27 01:36:10;;;;;;;4.75;1.70;;;;;;;;;;5043361;28;20138;-91
2022/11/27 01:38:36;;;;;;;4.35;1.55;;;;;;;;;;5030834;28;20688;-92
2022/11/27 01:41:08;;;;;;;3.80;1.33;;;;;;;;;;5028936;28;20033;-92
2022/11/27 01:43:46;;;;;;;2.10;1.55;;;;;;;;;;5040264;28;20018;-91
2022/11/27 01:46:26;;;;;;;4.40;1.58;;;;;;;;;;5052577;28;20032;-92
2022/11/27 01:48:54;;;;;;;1.45;0.95;;;;;;;;;;5039777;28;20044;-92
2022/11/27 01:51:22;;;;;;;3.13;1.25;;;;;;;;;;5033667;28;20042;-92
2022/11/27 01:53:50;;;;;;;2.60;1.17;;;;;;;;;;5040388;28;20036;-92
2022/11/27 01:56:15;;;;;;;4.22;1.65;;;;;;;;;;5030589;28;20564;-91
2022/11/27 01:58:41;;;;;;;4.10;1.75;;;;;;;;;;5025369;28;20034;-92
2022/11/27 02:01:06;;;;;;;3.28;1.20;;;;;;;;;;5026534;28;20073;-92
2022/11/27 02:03:32;;;;;;;5.55;2.03;;;;;;;;;;5024340;28;20041;-92
2022/11/27 02:06:30;;;;;;;3.63;1.90;;;;;;;;;;5043287;28;20049;-92
2022/11/27 02:08:56;;;;;;;2.65;1.45;;;;;;;;;;5014038;28;20048;-91
2022/11/27 02:11:39;;;;;;;4.20;1.73;;;;;;;;;;5030691;28;20461;-91
2022/11/27 02:14:10;;;;;;;3.33;2.03;;;;;;;;;;5031042;28;20029;-91
2022/11/27 02:16:44;;;;;;;1.73;1.40;;;;;;;;;;5029358;28;20025;-92
2022/11/27 02:19:15;;;;;;;;;;;;;;;;;;5023797;28;20037;-90
2022/11/27 02:22:22;;;;;;;2.20;1.50;;;;;;;;;;5017083;28;19913;-91
2022/11/27 02:25:04;;;;;;;1.88;1.35;;;;;;;;;;5023577;28;20041;-90
2022/11/27 02:27:33;;;;;;;10.35;1.58;;;;;;;;;;5033288;28;20033;-91
2022/11/27 02:30:00;;;;;;;5.38;1.83;;;;;;;;;;5023069;28;20287;-91
2022/11/27 02:32:34;;;;;;;1.85;1.33;;;;;;;;;;5030369;28;20045;-90
2022/11/27 02:35:15;;;;;;;2.65;1.40;;;;;;;;;;5031166;28;20033;-92
2022/11/27 02:37:52;;;;;;;2.05;1.42;;;;;;;;;;5029908;28;20037;-90
2022/11/27 02:40:37;;;;;;;2.97;1.63;;;;;;;;;;5020755;28;20042;-91
2022/11/27 02:43:08;;;;;;;4.80;1.55;;;;;;;;;;5033560;28;20057;-91
2022/11/27 02:45:46;;;;;;;1.70;1.10;;;;;;;;;;5018485;28;20067;-92
2022/11/27 02:48:15;;;;;;;6.47;2.65;;;;;;;;;;5025026;28;20045;-92
2022/11/27 02:50:44;;;;;;;3.90;1.33;;;;;;;;;;5023749;28;20065;-92
2022/11/27 02:53:14;;;;;;;3.53;1.08;;;;;;;;;;5030191;28;20053;-93
2022/11/27 02:55:42;;;;;;;4.15;1.58;;;;;;;;;;5032195;28;20478;-92
2022/11/27 02:58:13;;;;;;;6.97;1.48;;;;;;;;;;5042980;28;20042;-93
2022/11/27 03:00:40;;;;;;;3.75;1.48;;;;;;;;;;5030061;28;20045;-92
2022/11/27 03:03:08;;;;;;;5.10;1.27;;;;;;;;;;5022985;28;20029;-93
2022/11/27 03:05:38;;;;;;;3.47;1.52;;;;;;;;;;5024335;28;20112;-93
2022/11/27 03:08:12;;;;;;;6.88;1.60;;;;;;;;;;5032705;28;20030;-92
2022/11/27 03:10:55;;;;;;;4.03;1.15;;;;;;;;;;5021275;28;20028;-92
2022/11/27 03:13:24;;;;;;;3.20;1.20;;;;;;;;;;5024719;28;21118;-92
2022/11/27 03:16:21;;;;;;;3.92;1.60;;;;;;;;;;5021671;28;20121;-93
2022/11/27 03:18:56;;;;;;;5.35;1.35;;;;;;;;;;5033551;28;20417;-92
2022/11/27 03:21:35;;;;;;;7.25;1.55;;;;;;;;;;5033355;28;20045;-92
2022/11/27 03:24:01;;;;;;;4.05;1.45;;;;;;;;;;5036567;28;20040;-91
2022/11/27 03:26:26;;;;;;;7.60;1.92;;;;;;;;;;5035423;28;20042;-93
2022/11/27 03:28:53;;;;;;;2.72;1.23;;;;;;;;;;5029069;28;20033;-92
2022/11/27 03:31:19;;;;;;;3.25;1.00;;;;;;;;;;5028478;28;20017;-93
2022/11/27 03:33:45;;;;;;;2.28;1.05;;;;;;;;;;5022838;28;20045;-92
2022/11/27 03:36:25;;;;;;;4.57;1.45;;;;;;;;;;5029087;28;20565;-92
2022/11/27 03:38:53;;;;;;;4.30;1.50;;;;;;;;;;5043636;28;20048;-92
2022/11/27 03:41:43;;;;;;;1.77;1.65;;;;;;;;;;5028140;28;20037;-92
2022/11/27 03:44:16;;;;;;;1.20;1.10;;;;;;;;;;5032087;28;20533;-93
2022/11/27 03:47:05;;;;;;;4.78;1.45;;;;;;;;;;5024501;28;20152;-92
2022/11/27 03:49:53;;;;;;;1.00;0.80;;;;;;;;;;5023283;28;20041;-92
2022/11/27 03:52:25;;;;;;;0.52;0.52;;;;;;;;;;5028991;28;20038;-92
2022/11/27 03:55:08;;;;;;;6.05;1.60;;;;;;;;;;5025123;28;20132;-92
2022/11/27 03:58:01;;;;;;;2.08;1.42;;;;;;;;;;5022161;28;20049;-92
2022/11/27 04:00:33;;;;;;;8.80;2.08;;;;;;;;;;5018490;28;20075;-93
2022/11/27 04:03:01;;;;;;;1.33;0.90;;;;;;;;;;5026179;28;20116;-93
2022/11/27 04:05:26;;;;;;;1.75;0.73;;;;;;;;;;5029854;28;20260;-92
2022/11/27 04:07:52;;;;;;;4.13;1.30;;;;;;;;;;5032004;28;20091;-93
2022/11/27 04:10:17;;;;;;;2.30;1.08;;;;;;;;;;5023449;28;21427;-93
2022/11/27 04:12:42;;;;;;;1.92;1.02;;;;;;;;;;5029622;28;20048;-93
2022/11/27 04:15:08;;;;;;;6.68;2.00;;;;;;;;;;5031315;28;20041;-93
2022/11/27 04:17:34;;;;;;;2.47;1.25;;;;;;;;;;5031443;28;20519;-92
2022/11/27 04:19:59;;;;;;;7.15;1.38;;;;;;;;;;5031122;28;20033;-93
2022/11/27 04:22:25;;;;;;;2.92;1.60;;;;;;;;;;5030500;28;20048;-91
2022/11/27 04:24:50;;;;;;;2.55;1.10;;;;;;;;;;5031480;28;20090;-93
2022/11/27 04:27:16;;;;;;;1.02;0.88;;;;;;;;;;5029994;28;20029;-93
2022/11/27 04:29:41;;;;;;;3.75;1.23;;;;;;;;;;5033459;28;20073;-93
2022/11/27 04:32:33;;;;;;;2.33;1.05;;;;;;;;;;5016426;28;20657;-93
2022/11/27 04:34:58;;;;;;;3.17;1.70;;;;;;;;;;5021246;28;20040;-93
2022/11/27 04:37:24;;;;;;;9.15;2.15;;;;;;;;;;5033233;28;20025;-93
2022/11/27 04:39:49;;;;;;;5.57;2.05;;;;;;;;;;5035544;28;20038;-93
2022/11/27 04:42:15;;;;;;;4.15;1.58;;;;;;;;;;5030224;28;20044;-92
2022/11/27 04:44:40;;;;;;;9.60;2.65;;;;;;;;;;5008998;28;20095;-93
2022/11/27 04:47:06;;;;;;;4.43;1.73;;;;;;;;;;5031021;28;20068;-93
2022/11/27 04:49:31;;;;;;;3.28;1.42;;;;;;;;;;5031158;28;20064;-93
2022/11/27 04:51:56;;;;;;;2.60;1.67;;;;;;;;;;5029890;28;20053;-93
2022/11/27 04:54:22;;;;;;;0.88;0.70;;;;;;;;;;5030334;28;20025;-92
2022/11/27 04:56:47;;;;;;;5.13;1.73;;;;;;;;;;5029248;28;20124;-92
2022/11/27 04:59:15;;;;;;;5.07;1.60;;;;;;;;;;5042434;28;20033;-93
2022/11/27 05:01:41;;;;;;;2.25;1.55;;;;;;;;;;5030929;28;20075;-92
2022/11/27 05:04:06;;;;;;;7.55;1.77;;;;;;;;;;5030526;28;20033;-93
2022/11/27 05:06:32;;;;;;;3.80;1.48;;;;;;;;;;5028846;28;20651;-92
2022/11/27 05:09:00;;;;;;;2.42;1.20;;;;;;;;;;5030448;28;20029;-93
2022/11/27 05:11:27;;;;;;;8.88;2.03;;;;;;;;;;5031547;28;20112;-92
2022/11/27 05:14:13;;;;;;;1.77;0.85;;;;;;;;;;5028247;28;20064;-92
2022/11/27 05:16:38;;;;;;;5.38;1.70;;;;;;;;;;5049151;28;20032;-92
2022/11/27 05:19:03;;;;;;;3.30;1.52;;;;;;;;;;5029551;28;20121;-93
2022/11/27 05:21:29;;;;;;;7.88;2.05;;;;;;;;;;5029933;28;20072;-94
2022/11/27 05:23:54;;;;;;;2.30;1.38;;;;;;;;;;5029812;28;20091;-92
2022/11/27 05:26:20;;;;;;;3.30;2.05;;;;;;;;;;5028786;28;20397;-93
2022/11/27 05:28:45;;;;;;;3.35;1.80;;;;;;;;;;5030091;28;20299;-91
2022/11/27 05:31:10;;;;;;;4.30;1.88;;;;;;;;;;5046009;28;20769;-93
2022/11/27 05:33:36;;;;;;;3.72;1.38;;;;;;;;;;5029241;28;20121;-93
2022/11/27 05:36:01;;;;;;;4.35;2.05;;;;;;;;;;5028297;28;20502;-93
2022/11/27 05:38:26;;;;;;;1.25;0.90;;;;;;;;;;5042655;28;20029;-91
2022/11/27 05:40:52;;;;;;;1.40;0.88;;;;;;;;;;5046737;28;20053;-93
2022/11/27 05:43:17;;;;;;;5.00;2.30;;;;;;;;;;5065360;28;20033;-92
2022/11/27 05:45:42;;;;;;;1.15;0.75;;;;;;;;;;5041752;28;20120;-92
2022/11/27 05:48:08;;;;;;;6.38;2.40;;;;;;;;;;5037361;28;20071;-92
2022/11/27 05:50:33;;;;;;;7.43;2.00;;;;;;;;;;5030788;28;20041;-92
2022/11/27 05:52:58;;;;;;;2.70;1.42;;;;;;;;;;5029799;28;20031;-92
2022/11/27 05:55:24;;;;;;;2.88;1.13;;;;;;;;;;5028726;28;20080;-94
2022/11/27 05:57:55;;;;;;;6.50;1.50;;;;;;;;;;5024326;28;20046;-93
2022/11/27 06:00:21;;;;;;;4.68;1.92;;;;;;;;;;5030268;28;20540;-93
2022/11/27 06:03:03;;;;;;;3.40;1.45;;;;;;;;;;5024878;28;20140;-93
2022/11/27 06:05:29;;;;;;;4.45;1.20;;;;;;;;;;5013947;28;20038;-93
2022/11/27 06:07:54;;;;;;;2.28;1.63;;;;;;;;;;5023538;28;20124;-93
2022/11/27 06:10:19;;;;;;;4.93;1.80;;;;;;;;;;5024584;28;20013;-93
2022/11/27 06:12:45;;;;;;;4.18;1.70;;;;;;;;;;5024316;28;20055;-93
2022/11/27 06:15:10;;;;;;;2.95;1.58;;;;;;;;;;5020477;28;20105;-93
2022/11/27 06:18:00;;;;;;;5.95;1.90;;;;;;;;;;5027617;28;20054;-94
2022/11/27 06:20:26;;;;;;;1.08;0.80;;;;;;;;;;5018253;28;20067;-93
2022/11/27 06:23:00;;;;;;;4.60;1.83;;;;;;;;;;5026352;28;20033;-93
2022/11/27 06:25:25;;;;;;;6.40;2.15;;;;;;;;;;5027855;28;20059;-93
2022/11/27 06:27:51;;;;;;;3.85;1.85;;;;;;;;;;5025913;28;20048;-93
2022/11/27 06:30:17;;;;;;;3.17;1.83;;;;;;;;;;5024770;28;20075;-93
2022/11/27 06:32:43;;;;;;;5.47;2.03;;;;;;;;;;5032328;28;20057;-93
2022/11/27 06:35:08;;;;;;;8.57;2.65;;;;;;;;;;5031836;28;20028;-93
2022/11/27 06:37:34;;;;;;;3.90;1.42;;;;;;;;;;5033591;28;20033;-93
2022/11/27 06:39:59;;;;;;;5.80;2.13;;;;;;;;;;5029921;28;20048;-93
2022/11/27 06:42:28;;;;;;;4.68;1.80;;;;;;;;;;5027961;28;20033;-93
2022/11/27 06:44:54;;;;;;;4.40;2.08;;;;;;;;;;5025078;28;20087;-93
2022/11/27 06:47:19;;;;;;;2.08;1.42;;;;;;;;;;5033473;28;20038;-92
2022/11/27 06:49:44;;;;;;;6.18;1.90;;;;;;;;;;5033868;28;20048;-93
2022/11/27 06:52:10;;;;;;;3.88;1.80;;;;;;;;;;5033694;28;20478;-93
2022/11/27 06:54:35;;;;;;;1.98;1.25;;;;;;;;;;5032862;28;20087;-93
2022/11/27 06:57:01;;;;;;;9.40;2.25;;;;;;;;;;5033360;28;20084;-94
2022/11/27 06:59:26;;;;;;;3.65;2.08;;;;;;;;;;5033009;28;20120;-93
2022/11/27 07:01:51;;;;;;;5.18;2.28;;;;;;;;;;5035256;28;20025;-93
2022/11/27 07:04:17;;;;;;;8.13;2.50;;;;;;;;;;5037149;28;20052;-93
2022/11/27 07:06:42;;;;;;;10.38;2.60;;;;;;;;;;5034640;28;20067;-91
2022/11/27 07:09:09;;;;;;;6.57;2.30;;;;;;;;;;5050253;28;20057;-94
2022/11/27 07:11:34;;;;;;;4.57;1.83;;;;;;;;;;5032826;28;20643;-94
2022/11/27 07:14:03;;;;;;;4.53;2.05;;;;;;;;;;5032969;28;20036;-93
2022/11/27 07:16:31;;;;;;;4.32;2.15;;;;;;;;;;5032196;28;20026;-94
2022/11/27 07:18:59;;;;;;;3.65;1.92;;;;;;;;;;5029298;28;20411;-94
2022/11/27 07:21:26;;;;;;;2.92;1.33;;;;;;;;;;5015013;28;20026;-93
2022/11/27 07:23:52;;;;;;;2.53;1.27;;;;;;;;;;5037905;28;20038;-94
2022/11/27 07:26:20;;;;;;;3.17;1.83;;;;;;;;;;5027174;28;20037;-93
2022/11/27 07:28:46;;;;;;;7.95;2.50;;;;;;;;;;5020680;28;20441;-93
2022/11/27 07:31:13;;;;;;;5.93;2.85;;;;;;;;;;5015669;28;20041;-92
2022/11/27 07:33:38;;;;;;;2.97;1.30;;;;;;;;;;5029472;28;20109;-94
2022/11/27 07:36:11;;;;;;;5.03;2.08;;;;;;;;;;5031343;28;20514;-94
2022/11/27 07:38:36;;;;;;;2.45;1.65;;;;;;;;;;5040768;28;20034;-94
2022/11/27 07:41:04;;;;;;;3.25;1.58;;;;;;;;;;5048161;28;20014;-94
2022/11/27 07:43:31;;;;;;;14.82;2.67;;;;;;;;;;5025636;28;20029;-90
2022/11/27 07:45:56;;;;;;;3.38;2.25;;;;;;;;;;5025515;28;20153;-90
2022/11/27 07:48:22;;;;;;;4.57;2.45;;;;;;;;;;5045847;28;20124;-94
2022/11/27 07:50:47;;;;;;;2.97;1.70;;;;;;;;;;5031738;28;20179;-93
2022/11/27 07:53:16;;;;;;;3.00;1.60;;;;;;;;;;5030681;28;20377;-94
2022/11/27 07:55:41;;;;;;;4.78;2.15;;;;;;;;;;5030485;28;20033;-92
2022/11/27 07:58:07;;;;;;;1.67;1.17;;;;;;;;;;5029675;28;20365;-91
2022/11/27 08:00:33;;;;;;;5.93;2.13;;;;;;;;;;5029959;28;20049;-90
2022/11/27 08:02:59;;;;;;;2.25;1.77;;;;;;;;;;5030571;28;20095;-89
2022/11/27 08:05:25;;;;;;;4.25;1.40;;;;;;;;;;5024161;28;20042;-92
2022/11/27 08:07:50;;;;;;;1.88;1.30;;;;;;;;;;5020384;28;20229;-91
2022/11/27 08:10:16;;;;;;;4.55;2.65;;;;;;;;;;5024620;28;20490;-91
2022/11/27 08:12:41;;;;;;;3.75;1.67;;;;;;;;;;5029722;28;20117;-90
2022/11/27 08:15:08;;;;;;;2.80;1.45;;;;;;;;;;5026374;28;20087;-91
2022/11/27 08:17:33;;;;;;;2.70;1.13;;;;;;;;;;5022236;28;20068;-91
2022/11/27 08:19:59;;;;;;;4.53;2.83;;;;;;;;;;5025072;28;20463;-92
2022/11/27 08:22:24;;;;;;;1.38;1.17;;;;;;;;;;5016765;28;20029;-92
2022/11/27 08:24:50;;;;;;;4.10;2.30;;;;;;;;;;5020259;28;20632;-91
2022/11/27 08:27:16;;;;;;;3.80;1.38;;;;;;;;;;5027749;28;20041;-91
2022/11/27 08:29:43;;;;;;;3.92;2.05;;;;;;;;;;5020861;28;20067;-91
2022/11/27 08:32:09;;;;;;;6.03;2.03;;;;;;;;;;5025484;28;20108;-90
2022/11/27 08:34:35;;;;;;;6.25;2.13;;;;;;;;;;5017379;28;20817;-90
2022/11/27 08:37:00;;;;;;;1.88;1.42;;;;;;;;;;5025612;28;20154;-91
2022/11/27 08:39:26;;;;;;;3.13;1.63;;;;;;;;;;5030175;28;20029;-91
2022/11/27 08:41:55;;;;;;;6.03;2.05;;;;;;;;;;5029257;28;20418;-91
2022/11/27 08:44:20;;;;;;;3.60;1.85;;;;;;;;;;5017870;28;20036;-91
2022/11/27 08:46:45;;;;;;;2.42;1.80;;;;;;;;;;5028594;28;20042;-92
2022/11/27 08:49:11;;;;;;;7.70;1.70;;;;;;;;;;5027461;28;20033;-92
2022/11/27 08:51:36;;;;;;;7.28;2.03;;;;;;;;;;5005600;28;20045;-93
2022/11/27 08:54:02;;;;;;;3.60;2.17;;;;;;;;;;5019733;28;20060;-92
2022/11/27 08:56:31;;;;;;;4.38;2.42;;;;;;;;;;5021536;28;20081;-91
2022/11/27 08:58:56;;;;;;;5.47;2.03;;;;;;;;;;5027934;28;20119;-90
2022/11/27 09:01:24;;;;;;;6.85;2.50;;;;;;;;;;5035322;28;20144;-91
2022/11/27 09:04:02;;;;;;;3.38;1.98;;;;;;;;;;5013605;28;20473;-85
2022/11/27 09:06:33;;;;;;;4.93;2.80;;;;;;;;;;4995607;28;20168;-83
2022/11/27 09:09:00;;;;;;;3.50;2.13;;;;;;;;;;5019614;28;20728;-83
2022/11/27 09:11:31;;;;;;;5.75;2.55;;;;;;;;;;5014181;28;20048;-84
2022/11/27 09:14:02;;;;;;;2.28;1.85;;;;;;;;;;5013079;28;20610;-83
2022/11/27 09:16:28;;;;;;;4.00;1.52;;;;;;;;;;5019292;28;20830;-83
2022/11/27 09:18:54;;;;;;;3.85;1.58;;;;;;;;;;5032053;28;20657;-84
2022/11/27 09:21:24;;;;;;;2.75;1.63;;;;;;;;;;5026174;28;20124;-83
2022/11/27 09:23:53;;;;;;;2.75;1.70;;;;;;;;;;5015332;28;20510;-84
2022/11/27 09:26:27;;;;;;;3.88;2.15;;;;;;;;;;5007576;28;20036;-84
2022/11/27 09:28:54;;;;;;;4.03;1.20;;;;;;;;;;4994842;28;20144;-84
2022/11/27 09:31:23;;;;;;;2.20;1.73;;;;;;;;;;5006926;28;20744;-85
2022/11/27 09:33:51;;;;;;;3.40;1.73;;;;;;;;;;5008490;28;20128;-86
2022/11/27 09:36:22;;;;;;;7.10;2.25;;;;;;;;;;5004353;28;20033;-86
2022/11/27 09:38:53;;;;;;;6.97;2.53;;;;;;;;;;5013569;28;20033;-85
2022/11/27 09:41:39;;;;;;;1.90;1.58;;;;;;;;;;5009603;28;20484;-85
2022/11/27 09:44:23;;;;;;;7.68;3.15;;;;;;;;;;5007802;28;20037;-86
2022/11/27 09:47:00;;;;;;;3.72;1.98;;;;;;;;;;5017233;28;20156;-86
2022/11/27 09:52:44;;;;;;;;;;;;;;;;;;5009799;28;20057;-86
2022/11/27 09:55:28;;;;;;;3.00;1.67;;;;;;;;;;5024420;28;20020;-86
2022/11/27 09:58:20;;;;;;;1.92;1.10;;;;;;;;;;5002915;28;20063;-86
2022/11/27 10:00:57;;;;;;;4.57;2.17;;;;;;;;;;5014230;28;20180;-86
2022/11/27 10:03:33;;;;;;;9.93;3.40;;;;;;;;;;5005889;28;20053;-86
2022/11/27 10:06:20;;;;;;;11.98;2.38;;;;;;;;;;5013414;28;20073;-86
2022/11/27 10:09:11;;;;;;;2.28;1.45;;;;;;;;;;5011559;28;20041;-83
2022/11/27 10:12:07;;;;;;;3.95;2.20;;;;;;;;;;5009266;28;20561;-83
2022/11/27 10:15:02;;;;;;;7.38;2.67;;;;;;;;;;5026646;28;20426;-89
2022/11/27 10:17:47;;;;;;;3.72;2.00;;;;;;;;;;5019748;28;20423;-88
2022/11/27 10:20:22;;;;;;;5.28;2.47;;;;;;;;;;5022163;28;20049;-91
2022/11/27 10:23:02;;;;;;;2.60;1.90;;;;;;;;;;5018633;28;20041;-88
2022/11/27 10:25:33;;;;;;;4.72;3.20;;;;;;;;;;5028992;28;20049;-87
2022/11/27 10:28:11;;;;;;;4.60;2.50;;;;;;;;;;5023596;28;20441;-88
2022/11/27 10:30:42;;;;;;;7.03;2.83;;;;;;;;;;5016031;28;20082;-88
2022/11/27 10:33:26;;;;;;;5.28;2.45;;;;;;;;;;5021698;28;20072;-86
2022/11/27 10:35:52;;;;;;;3.45;1.92;;;;;;;;;;5018148;28;21383;-87
2022/11/27 10:38:25;;;;;;;2.42;1.27;;;;;;;;;;5018536;28;20042;-86
2022/11/27 10:41:11;;;;;;;8.23;2.30;;;;;;;;;;5019316;28;20017;-87
2022/11/27 10:43:39;;;;;;;6.75;2.88;;;;;;;;;;5019038;28;20044;-87
2022/11/27 10:46:13;;;;;;;4.15;2.25;;;;;;;;;;5013203;28;20037;-87
2022/11/27 10:48:39;;;;;;;8.30;2.83;;;;;;;;;;5018983;28;20045;-88
2022/11/27 10:51:21;;;;;;;5.93;2.70;;;;;;;;;;5020766;28;20038;-89
2022/11/27 10:53:51;;;;;;;6.53;2.85;;;;;;;;;;5020967;28;20064;-89
2022/11/27 10:56:54;;;;;;;4.97;2.03;;;;;;;;;;5022649;28;20029;-88
2022/11/27 10:59:28;;;;;;;5.82;2.53;;;;;;;;;;5012127;28;20073;-88
2022/11/27 11:01:54;;;;;;;5.70;2.30;;;;;;;;;;5018581;28;20040;-87
2022/11/27 11:04:24;;;;;;;3.85;1.75;;;;;;;;;;5017497;28;20014;-88
2022/11/27 11:06:50;;;;;;;5.07;1.92;;;;;;;;;;5017142;28;20561;-88
2022/11/27 11:09:29;;;;;;;5.80;2.50;;;;;;;;;;5014946;28;20022;-89
2022/11/27 11:12:17;;;;;;;6.18;2.75;;;;;;;;;;5020539;28;20065;-87
2022/11/27 11:15:10;;;;;;;4.55;2.30;;;;;;;;;;5016485;28;20041;-87
2022/11/27 11:17:37;;;;;;;7.70;2.78;;;;;;;;;;5013129;28;20034;-86
2022/11/27 11:20:23;;;;;;;4.22;1.70;;;;;;;;;;5016038;28;20056;-86
2022/11/27 11:22:49;;;;;;;5.00;2.42;;;;;;;;;;5033823;28;20022;-86
2022/11/27 11:25:17;;;;;;;5.47;2.70;;;;;;;;;;5028734;28;20041;-86
2022/11/27 11:27:44;;;;;;;6.47;2.60;;;;;;;;;;5028147;28;20080;-86
2022/11/27 11:30:27;;;;;;;13.90;5.45;;;;;;;;;;5028170;28;20029;-87
2022/11/27 11:33:00;;;;;;;13.83;4.90;;;;;;;;;;5018237;28;20038;-86
2022/11/27 11:35:34;;;;;;;5.50;2.25;;;;;;;;;;5004934;28;20064;-87
2022/11/27 11:38:01;;;;;;;5.18;2.70;;;;;;;;;;5020287;28;20035;-87
2022/11/27 11:40:30;;;;;;;9.65;2.15;;;;;;;;;;5017361;28;20029;-87
2022/11/27 11:42:58;;;;;;;4.72;2.15;;;;;;;;;;5020781;28;20042;-87
2022/11/27 11:45:28;;;;;;;3.42;1.95;;;;;;;;;;5017678;28;20533;-87
2022/11/27 11:48:02;;;;;;;3.25;2.00;;;;;;;;;;5023946;28;20530;-86
2022/11/27 11:50:45;;;;;;;5.30;2.78;;;;;;;;;;5043714;28;20037;-86
2022/11/27 11:53:49;;;;;;;5.30;2.33;;;;;;;;;;5027189;28;20513;-86
2022/11/27 11:56:38;;;;;;;4.18;2.17;;;;;;;;;;5005375;28;20025;-86
2022/11/27 11:59:14;;;;;;;6.13;3.20;;;;;;;;;;5026739;28;20486;-86
2022/11/27 12:01:58;;;;;;;4.60;2.58;;;;;;;;;;5031598;28;20026;-86
2022/11/27 12:05:09;;;;;;;5.32;2.38;;;;;;;;;;5025761;28;20080;-85
2022/11/27 12:08:11;;;;;;;5.45;1.77;;;;;;;;;;5007960;28;20033;-85
2022/11/27 12:10:40;;;;;;;3.92;1.95;;;;;;;;;;5018964;28;20037;-85
2022/11/27 12:13:27;;;;;;;3.10;1.83;;;;;;;;;;5007253;28;20124;-85
2022/11/27 12:16:41;;;;;;;4.53;1.73;;;;;;;;;;5005551;28;20048;-86
2022/11/27 12:19:34;;;;;;;3.37;1.97;;;;;;;;;;4999807;28;20046;-88
2022/11/27 12:22:11;;;;;;;3.30;1.77;;;;;;;;;;5021348;28;20290;-89
2022/11/27 12:25:14;;;;;;;3.65;2.08;;;;;;;;;;5023217;28;20079;-89
2022/11/27 12:28:01;;;;;;;2.60;1.88;;;;;;;;;;5019450;28;20091;-89
2022/11/27 12:31:01;;;;;;;5.85;2.97;;;;;;;;;;5028667;28;20025;-88
2022/11/27 12:33:39;;;;;;;8.27;2.05;;;;;;;;;;5019806;28;20064;-89
2022/11/27 12:36:14;;;;;;;3.28;2.17;;;;;;;;;;5021660;28;20559;-89
2022/11/27 12:39:14;;;;;;;5.30;2.67;;;;;;;;;;5032960;28;20049;-89
2022/11/27 12:42:01;;;;;;;3.28;2.03;;;;;;;;;;5014513;28;20509;-89
2022/11/27 12:44:29;;;;;;;10.45;2.10;;;;;;;;;;5024675;28;20049;-89
2022/11/27 12:47:01;;;;;;;2.42;1.40;;;;;;;;;;5025406;28;20704;-89
2022/11/27 12:49:31;;;;;;;4.78;2.60;;;;;;;;;;5021702;28;20433;-89
2022/11/27 12:52:10;;;;;;;5.10;2.20;;;;;;;;;;5022234;28;20034;-90
2022/11/27 12:54:43;;;;;;;5.28;2.65;;;;;;;;;;5023185;28;20049;-89
2022/11/27 12:57:15;;;;;;;10.10;3.15;;;;;;;;;;5019428;28;20065;-88
2022/11/27 12:59:58;;;;;;;3.55;1.88;;;;;;;;;;5025972;28;20533;-89
2022/11/27 13:02:48;;;;;;;3.08;1.52;;;;;;;;;;5015147;28;20049;-92
2022/11/27 13:05:27;;;;;;;3.70;1.95;;;;;;;;;;5020843;28;20086;-92
2022/11/27 13:08:03;;;;;;;5.13;2.75;;;;;;;;;;5037957;28;20487;-92
2022/11/27 13:10:48;;;;;;;4.03;1.83;;;;;;;;;;5026809;28;20017;-92
2022/11/27 13:13:22;;;;;;;3.85;1.98;;;;;;;;;;5033965;28;20733;-92
2022/11/27 13:15:59;;;;;;;6.25;2.42;;;;;;;;;;5023819;28;20045;-85
2022/11/27 13:19:01;;;;;;;2.50;1.65;;;;;;;;;;5004283;28;20064;-84
2022/11/27 13:21:30;;;;;;;4.05;2.10;;;;;;;;;;4998988;28;20058;-84
2022/11/27 13:23:59;;;;;;;2.33;1.60;;;;;;;;;;5019129;28;20033;-86
2022/11/27 13:26:39;;;;;;;5.28;2.65;;;;;;;;;;5019094;28;20526;-86
2022/11/27 13:29:28;;;;;;;7.28;2.17;;;;;;;;;;5016369;28;20044;-83
2022/11/27 13:31:57;;;;;;;1.77;1.35;;;;;;;;;;5011228;28;20086;-83
2022/11/27 13:34:26;;;;;;;3.97;1.83;;;;;;;;;;5017098;28;20017;-84
2022/11/27 13:37:01;;;;;;;3.38;2.22;;;;;;;;;;5008100;28;20132;-83
2022/11/27 13:39:34;;;;;;;4.60;2.13;;;;;;;;;;5019469;28;20132;-81
2022/11/27 13:42:07;;;;;;;6.17;2.43;;;;;;;;;;5023966;28;20112;-83
2022/11/27 13:44:40;;;;;;;7.20;2.70;;;;;;;;;;5037095;28;20083;-83
2022/11/27 13:47:20;;;;;;;4.05;2.05;;;;;;;;;;5022540;28;20144;-82
2022/11/27 13:49:58;;;;;;;4.70;2.08;;;;;;;;;;5034973;28;20025;-83
2022/11/27 13:52:24;;;;;;;5.97;3.03;;;;;;;;;;5017935;28;20041;-83
2022/11/27 13:55:06;;;;;;;4.82;2.45;;;;;;;;;;5021065;28;20047;-83
2022/11/27 13:57:35;;;;;;;5.10;1.67;;;;;;;;;;5018525;28;20036;-82
2022/11/27 14:00:15;;;;;;;10.38;2.63;;;;;;;;;;5016568;28;20041;-80
2022/11/27 14:02:44;;;;;;;6.35;2.25;;;;;;;;;;5014937;28;20061;-82
2022/11/27 14:05:13;;;;;;;8.45;2.63;;;;;;;;;;5023615;28;20028;-84
2022/11/27 14:07:41;;;;;;;6.97;2.88;;;;;;;;;;5023903;28;20017;-83
2022/11/27 14:10:19;;;;;;;3.35;1.75;;;;;;;;;;5019535;28;20073;-81
2022/11/27 14:13:03;;;;;;;3.20;1.73;;;;;;;;;;5019789;28;20590;-83
2022/11/27 14:15:29;;;;;;;;;;;;;;;;;;5009318;28;20034;-83
2022/11/27 14:18:08;;;;;;;5.95;2.30;;;;;;;;;;5015984;28;19936;-80
2022/11/27 14:20:37;;;;;;;7.32;2.60;;;;;;;;;;5017811;28;20041;-83
2022/11/27 14:23:02;;;;;;;4.55;2.15;;;;;;;;;;5013104;28;20037;-83
2022/11/27 14:25:32;;;;;;;2.85;1.67;;;;;;;;;;5022716;28;20140;-85
2022/11/27 14:28:26;;;;;;;4.75;2.20;;;;;;;;;;5023699;28;20038;-84
2022/11/27 14:30:55;;;;;;;4.00;1.90;;;;;;;;;;5029496;28;20045;-84
2022/11/27 14:33:43;;;;;;;3.65;1.42;;;;;;;;;;5027598;28;20113;-83
2022/11/27 14:36:23;;;;;;;4.20;2.08;;;;;;;;;;5022013;28;20124;-82
2022/11/27 14:38:49;;;;;;;2.90;1.77;;;;;;;;;;5022021;28;20030;-82
2022/11/27 14:41:17;;;;;;;4.25;2.28;;;;;;;;;;5018119;28;20123;-82
2022/11/27 14:43:42;;;;;;;7.78;2.88;;;;;;;;;;5016678;28;20098;-82
2022/11/27 14:46:17;;;;;;;3.10;1.92;;;;;;;;;;5015082;28;20041;-81
2022/11/27 14:48:46;;;;;;;4.00;2.47;;;;;;;;;;4998582;28;20042;-82
2022/11/27 14:51:20;;;;;;;3.80;1.65;;;;;;;;;;5022089;28;20033;-82
2022/11/27 14:53:48;;;;;;;3.05;1.88;;;;;;;;;;5012279;28;20542;-83
2022/11/27 14:56:14;;;;;;;3.47;1.90;;;;;;;;;;5017662;28;20044;-82
2022/11/27 14:58:51;;;;;;;4.57;1.98;;;;;;;;;;5016391;28;20120;-83
2022/11/27 15:01:28;;;;;;;3.13;1.55;;;;;;;;;;5021472;28;20026;-83
2022/11/27 15:03:55;;;;;;;3.63;2.05;;;;;;;;;;5020831;28;20040;-83
2022/11/27 15:06:21;;;;;;;3.33;1.55;;;;;;;;;;5021493;28;20056;-83
2022/11/27 15:08:47;;;;;;;5.35;2.78;;;;;;;;;;5023860;28;20030;-82
2022/11/27 15:11:16;;;;;;;5.53;2.35;;;;;;;;;;5021120;28;20083;-83
2022/11/27 15:13:42;;;;;;;2.13;1.38;;;;;;;;;;5023655;28;20052;-82